Terminal Aerodrome Forecast
Issued by NWS North Platte, NE

Home | Current Version | Previous Version | Text Only | Print | Product List | Glossary Off
Versions: 1 2 3 4 5 6 7 8 9 10 11 12 13 14 15

000
FTUS43 KLBF 211700
TAFVTN
TAF
KVTN 211729Z 2118/2218 36012G23KT P6SM FEW100
     FM212200 VRB05KT P6SM FEW120
     FM220600 14005KT P6SM SCT120=

USA.gov is the U.S. government's official web portal to all federal, state and local government web resources and services.